Time;durP1;ratioP1;P1;durP2;ratioP2;P2;SDS_P1;SDS_P2;PMS_P1;PMS_P2;Temp;Humidity;BMP_temperature;BMP_pressure;BME280_temperature;BME280_humidity;BME280_pressure;Samples;Min_cycle;Max_cycle;Signal;HPM_P1;HPM_P2
2020/12/29 00:01:43;;;;;;;14.43;8.43;;;4.00;99.50;;;;;;8213779;28;20057;-72
2020/12/29 00:05:46;;;;;;;14.98;9.00;;;4.20;99.60;;;;;;8228339;28;20054;-74
2020/12/29 00:09:47;;;;;;;14.35;8.80;;;4.30;99.70;;;;;;8212635;28;20331;-74
2020/12/29 00:13:48;;;;;;;16.27;8.47;;;4.80;99.90;;;;;;8245720;28;20053;-72
2020/12/29 00:17:50;;;;;;;17.27;9.00;;;3.90;99.80;;;;;;8238813;28;20069;-72
2020/12/29 00:21:52;;;;;;;15.10;8.87;;;4.30;99.90;;;;;;8240695;28;20508;-74
2020/12/29 00:25:55;;;;;;;15.20;9.32;;;4.10;99.90;;;;;;8222673;28;20060;-73
2020/12/29 00:29:56;;;;;;;14.77;8.98;;;3.80;99.90;;;;;;8223308;28;20736;-73
2020/12/29 00:33:58;;;;;;;13.07;8.43;;;4.10;99.90;;;;;;8227430;28;20054;-73
2020/12/29 00:37:59;;;;;;;15.30;8.93;;;4.90;99.90;;;;;;8238361;28;20054;-73
2020/12/29 00:42:01;;;;;;;14.10;9.07;;;3.90;99.90;;;;;;8219039;28;20109;-73
2020/12/29 00:46:07;;;;;;;19.45;9.02;;;4.30;99.90;;;;;;8198715;28;20051;-73
2020/12/29 00:50:09;;;;;;;16.13;9.50;;;5.40;99.90;;;;;;8217856;28;20047;-74
2020/12/29 00:54:11;;;;;;;;;;;4.00;99.90;;;;;;8237788;28;20669;-72
2020/12/29 00:58:21;;;;;;;17.98;10.10;;;4.50;99.90;;;;;;8239329;28;19953;-73
2020/12/29 01:02:22;;;;;;;18.02;9.80;;;4.70;99.90;;;;;;8226359;28;20141;-73
2020/12/29 01:06:42;;;;;;;16.58;9.40;;;4.50;99.90;;;;;;8205827;28;20579;-73
2020/12/29 01:10:53;;;;;;;22.83;10.13;;;4.40;99.90;;;;;;8215072;28;20178;-73
2020/12/29 01:15:15;;;;;;;17.83;9.80;;;4.30;99.90;;;;;;8243854;28;20062;-73
2020/12/29 01:19:35;;;;;;;15.35;8.82;;;4.40;99.90;;;;;;8230769;28;20063;-73
2020/12/29 01:23:36;;;;;;;16.40;9.20;;;4.60;99.90;;;;;;8203643;28;20059;-74
2020/12/29 01:27:38;;;;;;;17.83;9.45;;;4.50;99.90;;;;;;8208019;28;20054;-72
2020/12/29 01:31:39;;;;;;;18.73;8.23;;;4.40;99.90;;;;;;8232907;28;20046;-73
2020/12/29 01:35:41;;;;;;;19.43;9.53;;;4.80;99.90;;;;;;8217794;28;20504;-73
2020/12/29 01:39:42;;;;;;;14.67;9.70;;;4.30;99.90;;;;;;8209453;28;20117;-73
2020/12/29 01:43:43;;;;;;;16.13;8.50;;;4.10;99.90;;;;;;8254783;28;20508;-73
2020/12/29 01:47:47;;;;;;;12.87;7.17;;;5.20;99.90;;;;;;8216127;28;20058;-73
2020/12/29 01:51:48;;;;;;;16.70;8.77;;;4.60;99.90;;;;;;8214770;28;20101;-73
2020/12/29 01:55:51;;;;;;;18.60;9.97;;;4.60;99.90;;;;;;8215024;28;20104;-73
2020/12/29 01:59:52;;;;;;;16.33;7.43;;;4.80;99.90;;;;;;8247129;28;20102;-73
2020/12/29 02:03:54;;;;;;;9.10;6.47;;;4.60;99.90;;;;;;8224306;28;20051;-73
2020/12/29 02:07:56;;;;;;;19.93;10.63;;;4.50;99.90;;;;;;8239322;28;20096;-74
2020/12/29 02:11:57;;;;;;;;;;;4.60;99.90;;;;;;8244930;28;20062;-73
2020/12/29 02:15:58;;;;;;;12.00;6.50;;;4.30;99.90;;;;;;8205898;28;19937;-72
2020/12/29 02:20:00;;;;;;;11.00;5.23;;;5.20;99.90;;;;;;8239377;28;20058;-73
2020/12/29 02:24:03;;;;;;;16.92;11.20;;;5.00;99.90;;;;;;8229785;28;21054;-74
2020/12/29 02:28:07;;;;;;;17.20;9.75;;;4.40;99.90;;;;;;8227714;28;20055;-76
2020/12/29 02:32:09;;;;;;;17.83;11.50;;;4.60;99.90;;;;;;8199183;28;20062;-76
2020/12/29 02:36:11;;;;;;;18.25;10.23;;;4.30;99.90;;;;;;8206182;28;20116;-75
2020/12/29 02:40:13;;;;;;;;;;;4.60;99.90;;;;;;8212281;28;20090;-76
2020/12/29 02:44:19;;;;;;;18.60;11.33;;;4.60;99.90;;;;;;8228651;28;19921;-75
2020/12/29 02:48:21;;;;;;;19.63;11.32;;;4.60;99.90;;;;;;8228694;28;20456;-76
2020/12/29 02:52:22;;;;;;;20.87;11.77;;;4.60;99.90;;;;;;8234727;28;20054;-76
2020/12/29 02:56:24;;;;;;;19.67;11.93;;;4.50;99.90;;;;;;8239889;28;20061;-76
2020/12/29 03:00:25;;;;;;;22.73;13.10;;;5.50;99.90;;;;;;8243279;28;20046;-75
2020/12/29 03:04:26;;;;;;;22.40;11.83;;;4.50;99.90;;;;;;8222819;28;20661;-76
2020/12/29 03:08:28;;;;;;;22.85;11.55;;;4.50;99.90;;;;;;8215214;28;20154;-76
2020/12/29 03:12:30;;;;;;;16.43;9.83;;;4.70;99.90;;;;;;8232890;28;20050;-75
2020/12/29 03:16:32;;;;;;;23.27;14.23;;;5.90;99.90;;;;;;8235288;28;20050;-75
2020/12/29 03:20:33;;;;;;;23.38;14.05;;;4.30;99.90;;;;;;8230782;28;20145;-75
2020/12/29 03:24:34;;;;;;;17.37;10.17;;;4.50;99.90;;;;;;8211288;28;20098;-75
2020/12/29 03:28:37;;;;;;;13.83;7.83;;;4.50;99.90;;;;;;8232351;28;20058;-76
2020/12/29 03:32:38;;;;;;;23.30;13.10;;;5.00;99.90;;;;;;8204281;28;20689;-76
2020/12/29 03:36:39;;;;;;;21.43;11.63;;;4.60;99.90;;;;;;8233800;28;20050;-75
2020/12/29 03:40:41;;;;;;;18.77;10.63;;;4.50;99.90;;;;;;8239850;28;20063;-75
2020/12/29 03:44:42;;;;;;;21.37;13.17;;;4.60;99.90;;;;;;8232194;28;20046;-75
2020/12/29 03:48:44;;;;;;;17.13;10.50;;;5.40;99.90;;;;;;8207223;28;20046;-77
2020/12/29 03:52:46;;;;;;;25.83;12.38;;;4.60;99.90;;;;;;8232548;28;20070;-76
2020/12/29 03:56:48;;;;;;;19.75;11.57;;;4.60;99.90;;;;;;8229770;28;20057;-75
2020/12/29 04:00:50;;;;;;;17.07;9.77;;;4.20;99.90;;;;;;8233739;28;20440;-76
2020/12/29 04:04:52;;;;;;;;;;;3.30;99.90;;;;;;8217619;28;20061;-76
2020/12/29 04:08:54;;;;;;;18.98;10.98;;;4.30;99.90;;;;;;8242531;28;20362;-76
2020/12/29 04:12:55;;;;;;;19.70;13.10;;;4.40;99.90;;;;;;8241096;28;20085;-76
2020/12/29 04:16:56;;;;;;;11.67;6.00;;;4.80;99.90;;;;;;8185046;28;20047;-76
2020/12/29 04:20:58;;;;;;;17.73;9.50;;;4.20;99.90;;;;;;8221440;28;20536;-74
2020/12/29 04:25:01;;;;;;;20.63;11.10;;;4.30;99.90;;;;;;8231939;28;20050;-75
2020/12/29 04:29:04;;;;;;;18.48;10.48;;;4.30;99.90;;;;;;8209756;28;20497;-75
2020/12/29 04:33:06;;;;;;;18.90;11.68;;;4.10;99.90;;;;;;8202074;28;20093;-75
2020/12/29 04:37:07;;;;;;;19.00;11.67;;;4.30;99.90;;;;;;8211101;28;20057;-76
2020/12/29 04:41:09;;;;;;;12.10;7.15;;;5.30;99.90;;;;;;8229293;28;20658;-76
2020/12/29 04:45:11;;;;;;;24.00;12.00;;;3.80;99.90;;;;;;8221074;28;20065;-75
2020/12/29 04:49:12;;;;;;;22.10;13.83;;;4.30;99.90;;;;;;8205136;28;20059;-76
2020/12/29 04:53:15;;;;;;;19.77;11.70;;;4.20;99.90;;;;;;8219372;28;20050;-76
2020/12/29 04:57:16;;;;;;;19.85;10.68;;;4.50;99.90;;;;;;8221325;28;20469;-75
2020/12/29 05:01:23;;;;;;;18.00;12.30;;;4.10;99.90;;;;;;8204764;28;20054;-76
2020/12/29 05:05:34;;;;;;;19.15;9.45;;;4.60;99.90;;;;;;8219555;28;20058;-75
2020/12/29 05:09:37;;;;;;;19.65;11.98;;;5.30;99.90;;;;;;8228232;28;20046;-75
2020/12/29 05:13:42;;;;;;;12.25;7.40;;;4.10;99.90;;;;;;8238603;28;20051;-75
2020/12/29 05:17:44;;;;;;;15.27;9.68;;;3.90;99.90;;;;;;8229915;28;20056;-76
2020/12/29 05:21:46;;;;;;;16.10;9.87;;;4.20;99.90;;;;;;8232677;28;20080;-75
2020/12/29 05:25:48;;;;;;;18.50;10.65;;;4.70;99.90;;;;;;8213143;28;20113;-75
2020/12/29 05:29:49;;;;;;;18.27;9.07;;;3.90;99.90;;;;;;8225297;28;20062;-75
2020/12/29 05:33:51;;;;;;;11.23;7.07;;;4.70;99.90;;;;;;8210824;28;20437;-75
2020/12/29 05:37:52;;;;;;;9.63;5.63;;;4.00;99.90;;;;;;8243808;28;20100;-76
2020/12/29 05:41:56;;;;;;;13.25;7.75;;;4.80;99.90;;;;;;8246351;28;20046;-76
2020/12/29 05:45:58;;;;;;;13.70;8.85;;;3.80;99.90;;;;;;8241490;28;20594;-75
2020/12/29 05:50:05;;;;;;;10.27;6.88;;;3.50;99.90;;;;;;8252202;28;20474;-75
2020/12/29 05:54:09;;;;;;;11.20;8.32;;;3.80;99.90;;;;;;8252543;28;20591;-74
2020/12/29 05:58:11;;;;;;;12.52;7.47;;;3.40;99.90;;;;;;8241845;28;20315;-75
2020/12/29 06:02:12;;;;;;;8.18;5.53;;;4.00;99.90;;;;;;8221401;28;20113;-76
2020/12/29 06:06:17;;;;;;;8.57;5.78;;;4.40;99.90;;;;;;8246436;28;20100;-76
2020/12/29 06:10:18;;;;;;;7.50;4.47;;;3.90;99.90;;;;;;8240466;28;20061;-77
2020/12/29 06:14:23;;;;;;;8.10;5.47;;;4.10;99.90;;;;;;8240598;28;20089;-76
2020/12/29 06:18:39;;;;;;;10.57;5.60;;;3.60;99.90;;;;;;8237777;28;20053;-75
2020/12/29 06:22:44;;;;;;;6.75;4.68;;;3.90;99.90;;;;;;8228011;28;20118;-74
2020/12/29 06:26:51;;;;;;;5.03;3.58;;;3.20;99.90;;;;;;8242049;28;20049;-75
2020/12/29 06:30:56;;;;;;;5.07;3.05;;;3.90;99.90;;;;;;8233087;28;20083;-74
2020/12/29 06:34:57;;;;;;;4.90;3.30;;;4.50;99.90;;;;;;8236782;28;20045;-75
2020/12/29 06:39:04;;;;;;;5.07;3.30;;;3.10;99.90;;;;;;8242753;28;20437;-75
2020/12/29 06:43:08;;;;;;;3.67;2.58;;;4.60;99.90;;;;;;8242837;28;20073;-74
2020/12/29 06:47:10;;;;;;;5.93;3.65;;;3.70;99.90;;;;;;8243211;28;20065;-75
2020/12/29 06:51:13;;;;;;;5.35;3.03;;;3.50;99.90;;;;;;8245523;28;20058;-75
2020/12/29 06:55:18;;;;;;;3.60;2.28;;;3.40;99.90;;;;;;8235553;28;20126;-75
2020/12/29 06:59:21;;;;;;;4.05;2.83;;;3.30;99.90;;;;;;8239870;28;20229;-75
2020/12/29 07:03:32;;;;;;;5.10;2.65;;;3.30;99.90;;;;;;8237805;28;20050;-75
2020/12/29 07:07:34;;;;;;;3.80;2.58;;;2.90;99.90;;;;;;8240127;28;20523;-74
2020/12/29 07:11:36;;;;;;;6.43;2.40;;;2.90;99.90;;;;;;8229615;28;20518;-75
2020/12/29 07:15:49;;;;;;;4.88;2.92;;;4.20;99.90;;;;;;8241175;28;20558;-74
2020/12/29 07:19:54;;;;;;;5.13;2.88;;;3.40;99.90;;;;;;8239134;28;20085;-74
2020/12/29 07:23:56;;;;;;;4.15;2.55;;;2.70;99.90;;;;;;8245512;28;20069;-75
2020/12/29 07:28:06;;;;;;;4.13;2.88;;;3.80;99.90;;;;;;8241508;28;20512;-74
2020/12/29 07:32:08;;;;;;;4.28;2.85;;;3.10;99.90;;;;;;8236987;28;20112;-74
2020/12/29 07:36:11;;;;;;;4.97;3.40;;;4.00;99.90;;;;;;8238625;28;20483;-74
2020/12/29 07:40:12;;;;;;;5.25;3.53;;;2.90;99.90;;;;;;8244637;28;20042;-74
2020/12/29 07:44:14;;;;;;;6.03;3.20;;;3.00;99.90;;;;;;8228414;28;20048;-74
2020/12/29 07:48:15;;;;;;;5.33;3.53;;;3.30;99.90;;;;;;8246064;28;20491;-74
2020/12/29 07:52:23;;;;;;;5.00;3.40;;;3.90;99.90;;;;;;8218903;28;20054;-73
2020/12/29 07:56:25;;;;;;;7.75;4.07;;;2.80;99.90;;;;;;8241284;28;20074;-73
2020/12/29 08:00:26;;;;;;;6.53;3.73;;;4.00;99.90;;;;;;8244245;28;20062;-73
2020/12/29 08:04:32;;;;;;;8.40;4.63;;;2.80;99.90;;;;;;8221340;28;20053;-74
2020/12/29 08:08:33;;;;;;;8.82;4.75;;;3.20;99.90;;;;;;8245833;28;20058;-75
2020/12/29 08:12:35;;;;;;;8.07;5.90;;;3.90;99.90;;;;;;8234655;28;20054;-75
2020/12/29 08:16:36;;;;;;;6.45;4.63;;;3.20;99.90;;;;;;8237369;28;20055;-75
2020/12/29 08:20:47;;;;;;;6.72;4.43;;;3.20;99.90;;;;;;8235315;28;20046;-75
2020/12/29 08:24:48;;;;;;;7.35;5.18;;;3.10;99.90;;;;;;8252262;28;20066;-74
2020/12/29 08:28:51;;;;;;;8.75;4.90;;;2.80;99.90;;;;;;8231002;28;20050;-74
2020/12/29 08:32:54;;;;;;;6.85;4.90;;;3.40;99.90;;;;;;8235427;28;20047;-74
2020/12/29 08:36:59;;;;;;;6.90;5.10;;;3.40;99.90;;;;;;8240278;28;20046;-75
2020/12/29 08:41:22;;;;;;;8.43;5.68;;;3.80;99.90;;;;;;8238212;28;20162;-70
2020/12/29 08:45:28;;;;;;;8.77;5.47;;;3.80;99.90;;;;;;8217590;28;27349;-72
2020/12/29 08:49:30;;;;;;;7.00;4.95;;;3.50;99.90;;;;;;8234231;28;20057;-71
2020/12/29 08:53:31;;;;;;;8.27;5.33;;;3.20;99.90;;;;;;8218034;28;20046;-71
2020/12/29 08:57:35;;;;;;;7.00;5.07;;;4.10;99.90;;;;;;8241775;28;20045;-71
2020/12/29 09:01:40;;;;;;;8.13;6.07;;;3.20;99.90;;;;;;8228801;28;20460;-71
2020/12/29 09:05:44;;;;;;;9.13;6.07;;;3.00;99.90;;;;;;8223961;28;20053;-71
2020/12/29 09:09:52;;;;;;;8.75;6.22;;;3.50;99.90;;;;;;8212053;28;20051;-71
2020/12/29 09:14:05;;;;;;;9.93;6.40;;;3.10;99.90;;;;;;8213737;28;20651;-71
2020/12/29 09:18:07;;;;;;;7.70;5.50;;;3.50;99.90;;;;;;8240456;28;20128;-71
2020/12/29 09:22:12;;;;;;;8.05;5.65;;;3.40;99.90;;;;;;8215000;28;20062;-71
2020/12/29 09:26:26;;;;;;;10.27;6.03;;;3.10;99.90;;;;;;8232612;28;20054;-71
2020/12/29 09:30:28;;;;;;;;;;;3.10;99.90;;;;;;8218199;28;20043;-71
2020/12/29 09:34:29;;;;;;;7.97;5.50;;;3.10;99.90;;;;;;8222283;28;19933;-71
2020/12/29 09:38:32;;;;;;;7.50;5.45;;;3.90;99.90;;;;;;8233936;28;22056;-71
2020/12/29 09:42:34;;;;;;;6.50;4.25;;;3.40;99.90;;;;;;8237294;28;20105;-71
2020/12/29 09:46:38;;;;;;;7.45;5.07;;;3.20;99.90;;;;;;8230141;28;20055;-71
2020/12/29 09:50:40;;;;;;;7.90;5.18;;;4.20;99.90;;;;;;8240517;28;20054;-71
2020/12/29 09:54:41;;;;;;;7.20;5.22;;;3.80;99.90;;;;;;8244546;28;20507;-71
2020/12/29 09:58:43;;;;;;;9.03;5.10;;;3.00;99.90;;;;;;8227960;28;20463;-71
2020/12/29 10:02:44;;;;;;;7.75;5.55;;;2.90;99.90;;;;;;8235245;28;20052;-71
2020/12/29 10:06:48;;;;;;;7.50;4.97;;;3.20;99.90;;;;;;8215423;28;20054;-74
2020/12/29 10:10:50;;;;;;;9.23;5.95;;;3.20;99.90;;;;;;8225743;28;21032;-73
2020/12/29 10:14:51;;;;;;;6.73;4.57;;;4.10;99.90;;;;;;8241690;28;20052;-73
2020/12/29 10:18:53;;;;;;;5.82;4.03;;;4.70;99.90;;;;;;8215325;28;20813;-72
2020/12/29 10:22:55;;;;;;;6.73;3.10;;;4.70;99.90;;;;;;8233248;28;20050;-74
2020/12/29 10:26:57;;;;;;;4.57;3.10;;;5.20;99.90;;;;;;8237228;28;20251;-73
2020/12/29 10:30:58;;;;;;;;;;;5.50;99.90;;;;;;8221344;28;20058;-73
2020/12/29 10:35:00;;;;;;;5.22;3.33;;;5.80;99.60;;;;;;8231155;28;20068;-74
2020/12/29 10:39:04;;;;;;;4.40;3.03;;;5.70;98.10;;;;;;8218684;28;20069;-74
2020/12/29 10:43:05;;;;;;;4.35;2.97;;;5.60;97.90;;;;;;8249700;28;20105;-73
2020/12/29 10:47:07;;;;;;;5.27;3.43;;;5.30;98.20;;;;;;8217133;28;20480;-71
2020/12/29 10:51:09;;;;;;;4.60;3.20;;;5.00;98.60;;;;;;8222233;28;20050;-71
2020/12/29 10:55:10;;;;;;;5.03;3.50;;;4.60;99.00;;;;;;8239392;28;20527;-72
2020/12/29 10:59:12;;;;;;;5.37;3.83;;;4.50;99.40;;;;;;8242264;28;20100;-71
2020/12/29 11:03:13;;;;;;;6.10;3.78;;;4.30;99.50;;;;;;8239062;28;20120;-71
2020/12/29 11:07:15;;;;;;;6.97;3.17;;;4.60;99.70;;;;;;8233751;28;20062;-71
2020/12/29 11:11:18;;;;;;;5.75;3.22;;;4.00;99.70;;;;;;8210769;28;20050;-71
2020/12/29 11:15:19;;;;;;;5.32;3.20;;;4.60;99.90;;;;;;8240770;28;20055;-71
2020/12/29 11:19:23;;;;;;;20.70;12.90;;;3.80;99.80;;;;;;8240627;28;20054;-71
2020/12/29 11:23:27;;;;;;;45.97;28.65;;;3.90;99.90;;;;;;8239177;28;20055;-71
2020/12/29 11:27:28;;;;;;;6.30;4.40;;;3.90;99.90;;;;;;8222319;28;20118;-71
2020/12/29 11:31:30;;;;;;;5.85;3.85;;;3.90;99.90;;;;;;8239662;28;20042;-72
2020/12/29 11:35:34;;;;;;;35.30;17.97;;;3.60;99.90;;;;;;8240143;28;20054;-72
2020/12/29 11:39:35;;;;;;;9.00;5.53;;;4.10;99.90;;;;;;8238315;28;20062;-72
2020/12/29 11:43:40;;;;;;;5.38;3.40;;;4.00;99.90;;;;;;8209899;28;20061;-72
2020/12/29 11:47:42;;;;;;;5.78;3.67;;;3.50;99.90;;;;;;8243872;28;20096;-72
2020/12/29 11:51:47;;;;;;;4.10;3.08;;;3.80;99.90;;;;;;8220854;28;20112;-72
2020/12/29 11:55:49;;;;;;;4.97;3.78;;;3.90;99.90;;;;;;8209534;28;20053;-72
2020/12/29 11:59:50;;;;;;;8.50;5.30;;;3.90;99.90;;;;;;8238831;28;20042;-72
2020/12/29 12:03:51;;;;;;;4.87;3.40;;;3.50;99.90;;;;;;8217029;28;20051;-72
2020/12/29 12:07:54;;;;;;;5.13;3.45;;;4.50;99.90;;;;;;8188421;28;20129;-71
2020/12/29 12:11:55;;;;;;;9.80;5.67;;;3.60;99.90;;;;;;8223636;28;20054;-72
2020/12/29 12:15:57;;;;;;;4.43;3.23;;;4.20;99.90;;;;;;8235251;28;20058;-71
2020/12/29 12:20:11;;;;;;;6.15;4.13;;;3.50;99.90;;;;;;8249669;28;20567;-72
2020/12/29 12:24:13;;;;;;;6.27;3.67;;;3.90;99.90;;;;;;8239255;28;20050;-71
2020/12/29 12:28:18;;;;;;;4.97;3.03;;;3.90;99.90;;;;;;8233194;28;20061;-71
2020/12/29 12:32:20;;;;;;;5.10;3.08;;;3.80;99.90;;;;;;8225407;28;20543;-71
2020/12/29 12:36:21;;;;;;;3.50;2.30;;;3.60;99.90;;;;;;8221966;28;20097;-72
2020/12/29 12:40:23;;;;;;;3.70;2.35;;;4.60;99.90;;;;;;8204683;28;20186;-72
2020/12/29 12:44:24;;;;;;;4.30;2.88;;;4.60;99.90;;;;;;8208336;28;20410;-72
2020/12/29 12:48:26;;;;;;;3.90;2.57;;;3.90;99.90;;;;;;8204653;28;20511;-72
2020/12/29 12:52:27;;;;;;;4.07;2.05;;;4.10;99.90;;;;;;8209640;28;20605;-72
2020/12/29 12:56:30;;;;;;;5.47;4.23;;;5.10;99.90;;;;;;8205174;28;20426;-72
2020/12/29 13:00:32;;;;;;;3.40;2.17;;;3.90;99.90;;;;;;8213888;28;20312;-72
2020/12/29 13:04:33;;;;;;;4.90;2.67;;;4.00;99.90;;;;;;8213665;28;20046;-72
2020/12/29 13:08:35;;;;;;;5.00;3.17;;;3.70;99.90;;;;;;8242268;28;20109;-73
2020/12/29 13:12:36;;;;;;;5.37;3.67;;;4.10;99.90;;;;;;8241248;28;20538;-72
2020/12/29 13:16:37;;;;;;;5.13;2.73;;;3.90;99.90;;;;;;8231775;28;20560;-72
2020/12/29 13:20:39;;;;;;;4.83;3.60;;;4.30;99.90;;;;;;8202608;28;21009;-72
2020/12/29 13:24:40;;;;;;;4.50;3.50;;;4.00;99.90;;;;;;8242823;28;20133;-72
2020/12/29 13:28:43;;;;;;;4.03;2.77;;;3.50;99.90;;;;;;8208408;28;21119;-72
2020/12/29 13:32:45;;;;;;;5.05;3.03;;;4.70;99.90;;;;;;8241329;28;20149;-72
2020/12/29 13:36:48;;;;;;;5.40;2.70;;;3.50;99.90;;;;;;8228375;28;20480;-72
2020/12/29 13:41:01;;;;;;;4.65;3.33;;;4.60;99.90;;;;;;8222330;28;20061;-72
2020/12/29 13:45:03;;;;;;;10.57;5.43;;;4.20;99.90;;;;;;8232258;28;20058;-72
2020/12/29 13:49:04;;;;;;;4.88;3.28;;;4.20;99.90;;;;;;8214249;28;20067;-72
2020/12/29 13:53:08;;;;;;;5.85;3.25;;;3.80;99.90;;;;;;8212989;28;20073;-73
2020/12/29 13:57:10;;;;;;;3.65;2.65;;;3.90;99.90;;;;;;8220842;28;20094;-72
2020/12/29 14:01:12;;;;;;;3.87;2.83;;;3.40;99.90;;;;;;8208985;28;20043;-72
2020/12/29 14:05:14;;;;;;;3.70;2.88;;;3.70;99.90;;;;;;8225477;28;20089;-72
2020/12/29 14:09:16;;;;;;;5.35;3.10;;;3.70;99.90;;;;;;8239635;28;20547;-73
2020/12/29 14:13:18;;;;;;;5.78;3.95;;;4.10;99.90;;;;;;8237985;28;20766;-72
2020/12/29 14:17:19;;;;;;;6.60;4.43;;;4.50;99.90;;;;;;8216090;28;20089;-73
2020/12/29 14:21:21;;;;;;;4.87;3.57;;;4.00;99.90;;;;;;8239732;28;20458;-72
2020/12/29 14:25:22;;;;;;;5.28;3.88;;;4.40;99.90;;;;;;8240995;28;20046;-73
2020/12/29 14:29:25;;;;;;;4.83;3.73;;;3.60;99.90;;;;;;8210205;28;20508;-73
2020/12/29 14:33:26;;;;;;;5.47;3.60;;;3.80;99.90;;;;;;8206468;28;20847;-72
2020/12/29 14:37:30;;;;;;;6.07;4.37;;;2.90;99.90;;;;;;8233809;28;20148;-72
2020/12/29 14:41:32;;;;;;;6.85;4.55;;;3.90;99.90;;;;;;8241218;28;20318;-72
2020/12/29 14:45:33;;;;;;;6.30;4.07;;;3.70;99.90;;;;;;8222748;28;20097;-73
2020/12/29 14:49:35;;;;;;;6.93;4.65;;;3.80;99.90;;;;;;8238449;28;20053;-71
2020/12/29 14:53:36;;;;;;;6.35;5.03;;;3.80;99.90;;;;;;8225737;28;20671;-71
2020/12/29 14:57:38;;;;;;;8.30;5.77;;;4.10;99.90;;;;;;8206034;28;20042;-71
2020/12/29 15:01:39;;;;;;;7.43;5.53;;;3.70;99.90;;;;;;8209841;28;20141;-73
2020/12/29 15:05:41;;;;;;;9.32;6.78;;;4.00;99.90;;;;;;8229929;28;20146;-71
2020/12/29 15:09:42;;;;;;;8.07;5.23;;;3.30;99.90;;;;;;8188288;28;20050;-71
2020/12/29 15:13:46;;;;;;;7.03;4.77;;;3.80;99.90;;;;;;8225168;28;20046;-71
2020/12/29 15:17:48;;;;;;;8.07;5.32;;;3.90;99.90;;;;;;8230862;28;20050;-72
2020/12/29 15:21:52;;;;;;;8.35;5.70;;;3.30;99.90;;;;;;8268597;28;20049;-71
2020/12/29 15:25:53;;;;;;;8.77;6.28;;;4.30;99.90;;;;;;8273355;28;20053;-72
2020/12/29 15:29:54;;;;;;;10.20;6.80;;;3.60;99.90;;;;;;8273266;28;20096;-72
2020/12/29 15:33:56;;;;;;;9.40;6.50;;;3.60;99.90;;;;;;8237727;28;20111;-71
2020/12/29 15:37:57;;;;;;;11.30;8.10;;;4.00;99.90;;;;;;8239780;28;20092;-71
2020/12/29 15:41:59;;;;;;;11.53;8.13;;;3.60;99.90;;;;;;8255173;28;20562;-72
2020/12/29 15:46:10;;;;;;;14.65;9.30;;;3.40;99.90;;;;;;8227045;28;20080;-71
2020/12/29 15:50:11;;;;;;;16.83;10.38;;;3.70;99.90;;;;;;8223644;28;20055;-71
2020/12/29 15:54:12;;;;;;;19.70;12.90;;;3.90;99.90;;;;;;8244418;28;20054;-71
2020/12/29 15:58:14;;;;;;;18.63;12.67;;;3.20;99.90;;;;;;8266634;28;20054;-71
2020/12/29 16:02:15;;;;;;;21.70;13.03;;;4.20;99.90;;;;;;8260194;28;20096;-71
2020/12/29 16:06:17;;;;;;;22.00;13.32;;;3.90;99.90;;;;;;8241499;28;20049;-71
2020/12/29 16:10:19;;;;;;;22.67;14.43;;;4.00;99.90;;;;;;8244327;28;20058;-71
2020/12/29 16:14:20;;;;;;;21.58;12.82;;;4.40;99.90;;;;;;8270433;28;20050;-71
2020/12/29 16:18:25;;;;;;;25.95;15.48;;;4.10;99.90;;;;;;8240677;28;20054;-71
2020/12/29 16:22:28;;;;;;;24.93;15.00;;;3.60;99.90;;;;;;8223275;28;20055;-71
2020/12/29 16:26:30;;;;;;;23.52;14.20;;;3.20;99.90;;;;;;8257620;28;20057;-71
2020/12/29 16:30:31;;;;;;;25.40;15.97;;;3.40;99.90;;;;;;8232887;28;20573;-72
2020/12/29 16:34:33;;;;;;;23.90;14.27;;;3.30;99.90;;;;;;8233233;28;20092;-72
2020/12/29 16:38:34;;;;;;;27.00;15.57;;;3.90;99.90;;;;;;8258240;28;20058;-71
2020/12/29 16:42:36;;;;;;;22.33;14.63;;;3.60;99.90;;;;;;8257751;28;20049;-72
2020/12/29 16:46:39;;;;;;;23.70;14.80;;;4.30;99.90;;;;;;8261043;28;20475;-72
2020/12/29 16:50:40;;;;;;;22.20;13.10;;;3.40;99.90;;;;;;8269476;28;20049;-72
2020/12/29 16:54:44;;;;;;;22.83;13.27;;;4.00;99.90;;;;;;8262214;28;20054;-73
2020/12/29 16:58:47;;;;;;;22.52;13.55;;;3.50;99.90;;;;;;8270340;28;20050;-71
2020/12/29 17:02:48;;;;;;;22.58;13.23;;;4.50;99.90;;;;;;8264569;28;20096;-72
2020/12/29 17:06:50;;;;;;;21.90;13.70;;;3.70;99.90;;;;;;8275685;28;20060;-72
2020/12/29 17:10:51;;;;;;;23.35;14.30;;;3.60;99.90;;;;;;8261629;28;20050;-72
2020/12/29 17:14:53;;;;;;;24.20;14.47;;;4.00;99.90;;;;;;8259168;28;20058;-72
2020/12/29 17:18:55;;;;;;;26.43;15.43;;;4.40;99.90;;;;;;8261848;28;20050;-71
2020/12/29 17:22:56;;;;;;;21.60;13.38;;;3.80;99.90;;;;;;8263359;28;20144;-72
2020/12/29 17:27:03;;;;;;;20.25;13.48;;;4.40;99.90;;;;;;8271143;28;20546;-72
2020/12/29 17:31:05;;;;;;;19.38;11.68;;;4.30;99.90;;;;;;8266152;28;20057;-72
2020/12/29 17:35:07;;;;;;;19.80;12.37;;;3.70;99.90;;;;;;8268718;28;20042;-71
2020/12/29 17:39:10;;;;;;;18.63;12.17;;;4.40;99.90;;;;;;8266954;28;20060;-71
2020/12/29 17:43:12;;;;;;;20.92;13.30;;;3.90;99.90;;;;;;8258367;28;20589;-71
2020/12/29 17:47:14;;;;;;;20.95;12.82;;;4.40;99.90;;;;;;8264802;28;20096;-71
2020/12/29 17:51:20;;;;;;;20.03;12.53;;;4.20;99.90;;;;;;8265038;28;20046;-71
2020/12/29 17:55:21;;;;;;;22.10;12.68;;;3.50;99.90;;;;;;8242082;28;20109;-72
2020/12/29 17:59:23;;;;;;;20.60;12.80;;;4.20;99.90;;;;;;8247840;28;20665;-71
2020/12/29 18:03:24;;;;;;;21.43;13.33;;;3.40;99.90;;;;;;8254960;28;20691;-72
2020/12/29 18:07:25;;;;;;;19.90;12.70;;;3.50;99.90;;;;;;8258218;28;20075;-72
2020/12/29 18:11:33;;;;;;;21.05;13.05;;;3.70;99.90;;;;;;8234869;28;20050;-71
2020/12/29 18:15:34;;;;;;;20.52;13.52;;;3.50;99.90;;;;;;8232716;28;20050;-72
2020/12/29 18:19:37;;;;;;;25.17;14.50;;;3.50;99.90;;;;;;8242115;28;20057;-71
2020/12/29 18:23:38;;;;;;;28.15;15.90;;;3.20;99.90;;;;;;8247147;28;20463;-72
2020/12/29 18:27:39;;;;;;;26.48;16.63;;;3.80;99.90;;;;;;8264613;28;20049;-72
2020/12/29 18:31:41;;;;;;;29.10;16.53;;;3.90;99.90;;;;;;8240867;28;20466;-71
2020/12/29 18:35:43;;;;;;;29.60;16.60;;;4.60;99.90;;;;;;8250969;28;20584;-71
2020/12/29 18:39:45;;;;;;;25.70;14.98;;;3.90;99.90;;;;;;8238139;28;20451;-71
2020/12/29 18:43:47;;;;;;;28.35;15.93;;;3.60;99.90;;;;;;8227558;28;20084;-72
2020/12/29 18:47:50;;;;;;;26.97;15.93;;;4.40;99.90;;;;;;8247229;28;20062;-72
2020/12/29 18:51:54;;;;;;;24.50;15.27;;;3.50;99.90;;;;;;8262257;28;20084;-72
2020/12/29 18:55:56;;;;;;;25.90;15.38;;;4.60;99.90;;;;;;8269996;28;20741;-71
2020/12/29 18:59:59;;;;;;;25.87;14.60;;;4.70;99.90;;;;;;8264208;28;20132;-72
2020/12/29 19:04:00;;;;;;;27.52;15.60;;;3.40;99.90;;;;;;8239238;28;20053;-72
2020/12/29 19:08:01;;;;;;;26.70;15.30;;;3.50;99.90;;;;;;8251551;28;20113;-71
2020/12/29 19:12:03;;;;;;;24.10;14.97;;;3.30;99.90;;;;;;8247271;28;20058;-75
2020/12/29 19:16:04;;;;;;;20.97;13.77;;;4.20;99.90;;;;;;8268778;28;20054;-74
2020/12/29 19:20:05;;;;;;;20.77;13.53;;;4.60;99.90;;;;;;8264964;28;20061;-75
2020/12/29 19:24:07;;;;;;;22.43;13.87;;;3.80;99.90;;;;;;8260428;28;20051;-75
2020/12/29 19:28:10;;;;;;;20.47;12.87;;;3.50;99.90;;;;;;8260795;28;20116;-75
2020/12/29 19:32:21;;;;;;;20.88;12.75;;;3.70;99.90;;;;;;8274762;28;20731;-76
2020/12/29 19:36:23;;;;;;;18.47;11.53;;;4.00;99.90;;;;;;8250957;28;20053;-75
2020/12/29 19:40:24;;;;;;;20.57;12.27;;;4.80;99.90;;;;;;8254367;28;20108;-75
2020/12/29 19:44:26;;;;;;;20.67;13.27;;;4.90;99.90;;;;;;8261194;28;20537;-75
2020/12/29 19:48:27;;;;;;;23.80;13.30;;;4.80;99.90;;;;;;8258842;28;20400;-75
2020/12/29 19:52:29;;;;;;;23.88;14.95;;;4.50;99.90;;;;;;8272862;28;20061;-74
2020/12/29 19:56:30;;;;;;;19.87;13.33;;;4.50;99.90;;;;;;8266078;28;20049;-74
2020/12/29 20:00:35;;;;;;;20.73;12.88;;;3.80;99.90;;;;;;8257764;28;20097;-74
2020/12/29 20:04:36;;;;;;;22.50;13.68;;;4.30;99.90;;;;;;8259910;28;20042;-75
2020/12/29 20:08:37;;;;;;;18.90;12.20;;;4.30;99.90;;;;;;8274479;28;20100;-74
2020/12/29 20:12:39;;;;;;;26.10;12.93;;;4.40;99.90;;;;;;8263368;28;20046;-74
2020/12/29 20:16:42;;;;;;;20.67;11.73;;;4.60;99.90;;;;;;8243942;28;20517;-75
2020/12/29 20:20:44;;;;;;;18.50;12.27;;;4.50;99.90;;;;;;8263835;28;20061;-74
2020/12/29 20:24:46;;;;;;;17.27;10.65;;;4.50;99.90;;;;;;8286887;28;20050;-75
2020/12/29 20:28:48;;;;;;;17.40;11.30;;;4.20;99.90;;;;;;8255939;28;20053;-75
2020/12/29 20:32:50;;;;;;;26.45;14.40;;;4.00;99.90;;;;;;8261146;28;20057;-75
2020/12/29 20:36:51;;;;;;;16.73;11.52;;;4.50;99.90;;;;;;8268417;28;20474;-73
2020/12/29 20:40:53;;;;;;;18.67;11.83;;;4.00;99.90;;;;;;8259209;28;20050;-72
2020/12/29 20:45:03;;;;;;;16.27;10.95;;;4.10;99.90;;;;;;8269858;28;20060;-73
2020/12/29 20:49:05;;;;;;;13.93;10.18;;;4.40;99.90;;;;;;8266507;28;20058;-72
2020/12/29 20:53:07;;;;;;;17.20;10.77;;;4.40;99.90;;;;;;8265142;28;20641;-72
2020/12/29 20:57:10;;;;;;;16.00;10.03;;;4.60;99.90;;;;;;8259061;28;20054;-73
2020/12/29 21:01:12;;;;;;;20.33;11.73;;;4.40;99.90;;;;;;8268012;28;21088;-72
2020/12/29 21:05:14;;;;;;;16.60;11.05;;;4.50;99.90;;;;;;8263458;28;20504;-73